Arrowhead Farms, California
Current Conditions -  °F | °C
As of 4:50 PM on Saturday 25 Oct 2014 (Local Time) from KSBD Reporting Station
Scattered Clouds Scattered Clouds  
Wind Chill: 81°   Ceiling: Unl
Heat Index: 81°   Visibility: 10mi
Dew Point: 43°   Wind: 14mph
Humidity: 26%   Direction: 250°WSW
Pressure: 29.99"   Gusts: NA
Location:  34.2759°N, 117.303°W
Report Text: KSBD 252350Z 25012KT 10SM SCT090 27/06 A2999
Loading
Personal Weather Stations






























Interactive Weather Map
Tropical Storm Tracking
New forecast layout! Learn more

10-Day Weather Forecast

Advertisements
Track Severe Weather on mobile